Skip Navigation Links Skip Navigation Links

Current Weather

Schaumburg Regional, Chicago/Schaumburg, Ill.

For information only: do not use for flight planning or navigation.
Latest weather
Observation time Wednesday, October 27, 2021 2:15 AM CDT
Local time Wednesday, October 27, 2021 2:33 AM CDT
Flight conditions Visual Meteorological Conditions
Winds
Wind speed calm
Visibility 10 mi.
Sky condition
Ceiling unlimited
Sky clear
Temperature 36°F
Dewpoint 36°F
Altimeter 30.02 in.Hg
Derived measurements
Relative humidity 96%
Wind chill 36°F
Density altitude -728 ft.
Remarks
Fully automated report.
Automated weather observing station with precipitation discriminator.
METAR K06C 270715Z AUTO 00000KT 10SM CLR 03/02 A3002 RMK AO2 T00250020

Settings

Location code

InnerDrive.Weather 4.0.6770.0 Release CLR 4.0.30319.42000
Copyright ©2018 Inner Drive Technology. All rights reserved. Portions Copyright ©1986-2018 David Braverman.

Find weather

Site navigation


Skip Navigation Links

Place info

Page info

PayPal - The safer, easier way to pay online!

Return home.

Copyright ©2021 Inner Drive Technology. Purveyors of fine, hand-crafted computer software. Page printed 2021-10-27T07:33:41 UTC.